Terminal Aerodrome Forecast
Issued by NWS

Home | Current Version | Previous Version | Text Only | Print | Product List | Glossary On
Versions: 1 2 3 4 5 6 7 8 9 10 11 12 13 14 15 16 17 18 19 20 21 22 23 24 25
000
FTUS41 KCTP 260326 AAA
TAFAOO
TAF AMD
KAOO 260326Z 2603/2624 20008KT P6SM SCT045
     FM260700 20008KT P6SM VCTS BKN040CB
     FM260900 27005KT 5SM BR BKN025
     FM261300 31007KT P6SM SCT050=

USA.gov is the U.S. government's official web portal to all federal, state and local government web resources and services.